sensor_id;sensor_type;location;lat;lon;timestamp;P1;durP1;ratioP1;P2;durP2;ratioP2
20589;SDS011;10453;50.810;12.540;2022-12-04T00:01:35;97.45;;;36.42;;
20589;SDS011;10453;50.810;12.540;2022-12-04T00:06:00;84.97;;;34.15;;
20589;SDS011;10453;50.810;12.540;2022-12-04T00:10:22;93.45;;;35.75;;
20589;SDS011;10453;50.810;12.540;2022-12-04T00:14:39;82.55;;;34.20;;
20589;SDS011;10453;50.810;12.540;2022-12-04T00:19:16;92.75;;;34.67;;
20589;SDS011;10453;50.810;12.540;2022-12-04T00:23:33;103.80;;;38.17;;
20589;SDS011;10453;50.810;12.540;2022-12-04T00:27:51;103.53;;;38.47;;
20589;SDS011;10453;50.810;12.540;2022-12-04T00:32:09;106.32;;;36.33;;
20589;SDS011;10453;50.810;12.540;2022-12-04T00:36:26;107.75;;;36.50;;
20589;SDS011;10453;50.810;12.540;2022-12-04T00:45:07;107.22;;;36.78;;
20589;SDS011;10453;50.810;12.540;2022-12-04T00:49:25;88.90;;;36.42;;
20589;SDS011;10453;50.810;12.540;2022-12-04T00:53:42;101.07;;;37.03;;
20589;SDS011;10453;50.810;12.540;2022-12-04T00:58:00;105.50;;;37.30;;
20589;SDS011;10453;50.810;12.540;2022-12-04T01:02:17;98.97;;;37.25;;
20589;SDS011;10453;50.810;12.540;2022-12-04T01:06:34;96.70;;;37.40;;
20589;SDS011;10453;50.810;12.540;2022-12-04T01:10:52;109.68;;;37.55;;
20589;SDS011;10453;50.810;12.540;2022-12-04T01:15:09;106.07;;;38.05;;
20589;SDS011;10453;50.810;12.540;2022-12-04T01:19:27;113.63;;;38.75;;
20589;SDS011;10453;50.810;12.540;2022-12-04T01:23:44;104.10;;;36.78;;
20589;SDS011;10453;50.810;12.540;2022-12-04T01:28:01;110.73;;;39.40;;
20589;SDS011;10453;50.810;12.540;2022-12-04T01:32:19;95.35;;;36.83;;
20589;SDS011;10453;50.810;12.540;2022-12-04T01:36:36;111.22;;;37.72;;
20589;SDS011;10453;50.810;12.540;2022-12-04T01:40:54;115.35;;;39.10;;
20589;SDS011;10453;50.810;12.540;2022-12-04T01:49:47;112.15;;;38.05;;
20589;SDS011;10453;50.810;12.540;2022-12-04T01:54:06;99.67;;;36.47;;
20589;SDS011;10453;50.810;12.540;2022-12-04T01:58:28;115.05;;;37.53;;
20589;SDS011;10453;50.810;12.540;2022-12-04T02:02:52;107.95;;;39.40;;
20589;SDS011;10453;50.810;12.540;2022-12-04T02:07:09;106.07;;;39.42;;
20589;SDS011;10453;50.810;12.540;2022-12-04T02:11:51;85.20;;;35.30;;
20589;SDS011;10453;50.810;12.540;2022-12-04T02:21:10;110.23;;;38.30;;
20589;SDS011;10453;50.810;12.540;2022-12-04T02:30:19;107.00;;;38.25;;
20589;SDS011;10453;50.810;12.540;2022-12-04T02:34:40;112.65;;;40.08;;
20589;SDS011;10453;50.810;12.540;2022-12-04T02:39:12;124.22;;;41.20;;
20589;SDS011;10453;50.810;12.540;2022-12-04T02:48:02;127.15;;;41.88;;
20589;SDS011;10453;50.810;12.540;2022-12-04T02:52:27;124.97;;;41.38;;
20589;SDS011;10453;50.810;12.540;2022-12-04T02:56:54;126.53;;;41.55;;
20589;SDS011;10453;50.810;12.540;2022-12-04T03:01:14;132.45;;;44.33;;
20589;SDS011;10453;50.810;12.540;2022-12-04T03:05:39;136.25;;;41.83;;
20589;SDS011;10453;50.810;12.540;2022-12-04T03:10:03;126.78;;;41.55;;
20589;SDS011;10453;50.810;12.540;2022-12-04T03:14:26;128.52;;;40.97;;
20589;SDS011;10453;50.810;12.540;2022-12-04T03:18:52;143.70;;;44.45;;
20589;SDS011;10453;50.810;12.540;2022-12-04T03:23:43;143.45;;;42.80;;
20589;SDS011;10453;50.810;12.540;2022-12-04T03:28:06;150.40;;;44.25;;
20589;SDS011;10453;50.810;12.540;2022-12-04T03:37:07;136.85;;;43.88;;
20589;SDS011;10453;50.810;12.540;2022-12-04T03:46:13;178.15;;;46.30;;
20589;SDS011;10453;50.810;12.540;2022-12-04T03:55:24;171.82;;;44.83;;
20589;SDS011;10453;50.810;12.540;2022-12-04T03:59:59;153.95;;;44.70;;
20589;SDS011;10453;50.810;12.540;2022-12-04T04:04:22;121.07;;;42.80;;
20589;SDS011;10453;50.810;12.540;2022-12-04T04:08:45;168.93;;;44.55;;
20589;SDS011;10453;50.810;12.540;2022-12-04T04:13:06;161.48;;;45.30;;
20589;SDS011;10453;50.810;12.540;2022-12-04T04:17:42;143.02;;;44.05;;
20589;SDS011;10453;50.810;12.540;2022-12-04T04:26:58;163.75;;;43.53;;
20589;SDS011;10453;50.810;12.540;2022-12-04T04:31:18;175.48;;;44.67;;
20589;SDS011;10453;50.810;12.540;2022-12-04T04:40:26;200.38;;;49.05;;
20589;SDS011;10453;50.810;12.540;2022-12-04T04:45:16;178.52;;;45.35;;
20589;SDS011;10453;50.810;12.540;2022-12-04T04:49:37;168.30;;;45.83;;
20589;SDS011;10453;50.810;12.540;2022-12-04T04:53:57;162.23;;;44.40;;
20589;SDS011;10453;50.810;12.540;2022-12-04T04:58:17;193.27;;;46.72;;
20589;SDS011;10453;50.810;12.540;2022-12-04T05:02:36;171.27;;;45.10;;
20589;SDS011;10453;50.810;12.540;2022-12-04T05:06:54;186.60;;;48.10;;
20589;SDS011;10453;50.810;12.540;2022-12-04T05:11:12;178.93;;;45.92;;
20589;SDS011;10453;50.810;12.540;2022-12-04T05:15:29;165.55;;;45.88;;
20589;SDS011;10453;50.810;12.540;2022-12-04T05:19:47;163.80;;;45.08;;
20589;SDS011;10453;50.810;12.540;2022-12-04T05:24:11;194.63;;;46.85;;
20589;SDS011;10453;50.810;12.540;2022-12-04T05:28:28;159.43;;;44.90;;
20589;SDS011;10453;50.810;12.540;2022-12-04T05:32:45;243.55;;;48.30;;
20589;SDS011;10453;50.810;12.540;2022-12-04T05:37:02;165.80;;;45.58;;
20589;SDS011;10453;50.810;12.540;2022-12-04T05:41:19;179.77;;;46.67;;
20589;SDS011;10453;50.810;12.540;2022-12-04T05:45:36;163.65;;;44.78;;
20589;SDS011;10453;50.810;12.540;2022-12-04T05:49:53;189.40;;;46.58;;
20589;SDS011;10453;50.810;12.540;2022-12-04T05:54:11;169.13;;;47.07;;
20589;SDS011;10453;50.810;12.540;2022-12-04T05:58:29;172.77;;;45.50;;
20589;SDS011;10453;50.810;12.540;2022-12-04T06:02:46;160.73;;;44.20;;
20589;SDS011;10453;50.810;12.540;2022-12-04T06:07:03;142.20;;;43.95;;
20589;SDS011;10453;50.810;12.540;2022-12-04T06:11:25;177.65;;;49.88;;
20589;SDS011;10453;50.810;12.540;2022-12-04T06:15:45;185.57;;;54.47;;
20589;SDS011;10453;50.810;12.540;2022-12-04T06:20:02;167.10;;;48.13;;
20589;SDS011;10453;50.810;12.540;2022-12-04T06:24:26;181.40;;;46.08;;
20589;SDS011;10453;50.810;12.540;2022-12-04T06:28:44;148.95;;;45.33;;
20589;SDS011;10453;50.810;12.540;2022-12-04T06:33:01;164.25;;;45.88;;
20589;SDS011;10453;50.810;12.540;2022-12-04T06:37:19;184.00;;;46.95;;
20589;SDS011;10453;50.810;12.540;2022-12-04T06:41:37;163.23;;;46.65;;
20589;SDS011;10453;50.810;12.540;2022-12-04T06:45:58;204.38;;;50.03;;
20589;SDS011;10453;50.810;12.540;2022-12-04T06:50:16;164.95;;;46.53;;
20589;SDS011;10453;50.810;12.540;2022-12-04T06:54:34;184.40;;;48.13;;
20589;SDS011;10453;50.810;12.540;2022-12-04T06:58:52;168.15;;;45.40;;
20589;SDS011;10453;50.810;12.540;2022-12-04T07:03:10;222.50;;;51.33;;
20589;SDS011;10453;50.810;12.540;2022-12-04T07:07:28;173.63;;;49.20;;
20589;SDS011;10453;50.810;12.540;2022-12-04T07:11:45;176.82;;;52.25;;
20589;SDS011;10453;50.810;12.540;2022-12-04T07:16:03;174.50;;;52.58;;
20589;SDS011;10453;50.810;12.540;2022-12-04T07:20:22;145.88;;;47.28;;
20589;SDS011;10453;50.810;12.540;2022-12-04T07:24:39;152.10;;;47.53;;
20589;SDS011;10453;50.810;12.540;2022-12-04T07:28:57;169.20;;;48.78;;
20589;SDS011;10453;50.810;12.540;2022-12-04T07:33:15;159.25;;;47.72;;
20589;SDS011;10453;50.810;12.540;2022-12-04T07:37:34;143.27;;;45.30;;
20589;SDS011;10453;50.810;12.540;2022-12-04T07:41:51;160.27;;;50.05;;
20589;SDS011;10453;50.810;12.540;2022-12-04T07:46:12;164.45;;;50.00;;
20589;SDS011;10453;50.810;12.540;2022-12-04T07:50:32;161.57;;;50.53;;
20589;SDS011;10453;50.810;12.540;2022-12-04T07:54:49;137.45;;;48.33;;
20589;SDS011;10453;50.810;12.540;2022-12-04T07:59:06;158.75;;;49.13;;
20589;SDS011;10453;50.810;12.540;2022-12-04T08:03:23;162.10;;;50.58;;
20589;SDS011;10453;50.810;12.540;2022-12-04T08:07:41;148.68;;;49.53;;
20589;SDS011;10453;50.810;12.540;2022-12-04T08:11:59;149.48;;;48.72;;
20589;SDS011;10453;50.810;12.540;2022-12-04T08:16:16;149.40;;;50.97;;
20589;SDS011;10453;50.810;12.540;2022-12-04T08:20:33;148.18;;;48.53;;
20589;SDS011;10453;50.810;12.540;2022-12-04T08:24:50;152.77;;;51.97;;
20589;SDS011;10453;50.810;12.540;2022-12-04T08:29:07;150.00;;;49.92;;
20589;SDS011;10453;50.810;12.540;2022-12-04T08:33:24;148.45;;;51.50;;
20589;SDS011;10453;50.810;12.540;2022-12-04T08:37:41;175.15;;;56.00;;
20589;SDS011;10453;50.810;12.540;2022-12-04T08:41:58;183.52;;;69.28;;
20589;SDS011;10453;50.810;12.540;2022-12-04T08:46:16;185.10;;;57.63;;
20589;SDS011;10453;50.810;12.540;2022-12-04T08:54:51;353.45;;;154.63;;
20589;SDS011;10453;50.810;12.540;2022-12-04T08:59:08;171.48;;;56.58;;
20589;SDS011;10453;50.810;12.540;2022-12-04T09:03:28;199.30;;;65.22;;
20589;SDS011;10453;50.810;12.540;2022-12-04T09:07:46;173.93;;;58.17;;
20589;SDS011;10453;50.810;12.540;2022-12-04T09:12:04;173.00;;;55.88;;
20589;SDS011;10453;50.810;12.540;2022-12-04T09:16:21;174.75;;;55.47;;
20589;SDS011;10453;50.810;12.540;2022-12-04T09:20:40;190.63;;;58.67;;
20589;SDS011;10453;50.810;12.540;2022-12-04T09:24:57;188.77;;;64.22;;
20589;SDS011;10453;50.810;12.540;2022-12-04T09:29:14;189.10;;;56.83;;
20589;SDS011;10453;50.810;12.540;2022-12-04T09:33:31;175.02;;;56.33;;
20589;SDS011;10453;50.810;12.540;2022-12-04T09:37:49;170.82;;;56.47;;
20589;SDS011;10453;50.810;12.540;2022-12-04T09:46:30;140.00;;;52.00;;
20589;SDS011;10453;50.810;12.540;2022-12-04T09:50:53;157.48;;;54.50;;
20589;SDS011;10453;50.810;12.540;2022-12-04T09:55:18;148.52;;;54.22;;
20589;SDS011;10453;50.810;12.540;2022-12-04T09:59:39;150.37;;;53.23;;
20589;SDS011;10453;50.810;12.540;2022-12-04T10:03:56;170.70;;;55.15;;
20589;SDS011;10453;50.810;12.540;2022-12-04T10:08:28;143.85;;;51.33;;
20589;SDS011;10453;50.810;12.540;2022-12-04T10:17:23;148.75;;;53.63;;
20589;SDS011;10453;50.810;12.540;2022-12-04T10:26:43;164.88;;;56.03;;
20589;SDS011;10453;50.810;12.540;2022-12-04T10:31:02;152.38;;;53.88;;
20589;SDS011;10453;50.810;12.540;2022-12-04T10:35:26;183.32;;;57.17;;
20589;SDS011;10453;50.810;12.540;2022-12-04T10:44:17;156.20;;;57.42;;
20589;SDS011;10453;50.810;12.540;2022-12-04T10:48:36;182.60;;;66.97;;
20589;SDS011;10453;50.810;12.540;2022-12-04T10:52:55;175.35;;;60.13;;
20589;SDS011;10453;50.810;12.540;2022-12-04T10:57:12;181.30;;;62.45;;
20589;SDS011;10453;50.810;12.540;2022-12-04T11:01:31;179.90;;;60.10;;
20589;SDS011;10453;50.810;12.540;2022-12-04T11:05:53;182.95;;;58.85;;
20589;SDS011;10453;50.810;12.540;2022-12-04T11:10:17;173.45;;;58.00;;
20589;SDS011;10453;50.810;12.540;2022-12-04T11:15:28;167.15;;;57.63;;
20589;SDS011;10453;50.810;12.540;2022-12-04T11:19:37;203.95;;;62.30;;
20589;SDS011;10453;50.810;12.540;2022-12-04T11:23:54;177.35;;;62.08;;
20589;SDS011;10453;50.810;12.540;2022-12-04T11:28:16;165.27;;;56.90;;
20589;SDS011;10453;50.810;12.540;2022-12-04T11:32:57;171.60;;;58.25;;
20589;SDS011;10453;50.810;12.540;2022-12-04T11:37:17;171.13;;;58.78;;
20589;SDS011;10453;50.810;12.540;2022-12-04T11:41:38;205.48;;;64.30;;
20589;SDS011;10453;50.810;12.540;2022-12-04T11:46:05;174.68;;;62.20;;
20589;SDS011;10453;50.810;12.540;2022-12-04T11:50:28;162.48;;;58.30;;
20589;SDS011;10453;50.810;12.540;2022-12-04T11:55:00;165.30;;;57.67;;
20589;SDS011;10453;50.810;12.540;2022-12-04T11:59:52;174.30;;;61.17;;
20589;SDS011;10453;50.810;12.540;2022-12-04T12:23:06;178.85;;;62.90;;
20589;SDS011;10453;50.810;12.540;2022-12-04T12:36:33;187.23;;;63.80;;
20589;SDS011;10453;50.810;12.540;2022-12-04T12:41:01;176.68;;;62.75;;
20589;SDS011;10453;50.810;12.540;2022-12-04T12:45:55;207.90;;;64.95;;
20589;SDS011;10453;50.810;12.540;2022-12-04T12:50:43;186.85;;;63.20;;
20589;SDS011;10453;50.810;12.540;2022-12-04T12:55:21;180.75;;;65.00;;
20589;SDS011;10453;50.810;12.540;2022-12-04T12:59:48;197.68;;;79.10;;
20589;SDS011;10453;50.810;12.540;2022-12-04T13:09:33;186.43;;;70.70;;
20589;SDS011;10453;50.810;12.540;2022-12-04T13:13:34;167.98;;;63.05;;
20589;SDS011;10453;50.810;12.540;2022-12-04T13:17:55;186.18;;;66.78;;
20589;SDS011;10453;50.810;12.540;2022-12-04T13:31:24;171.75;;;63.85;;
20589;SDS011;10453;50.810;12.540;2022-12-04T13:44:34;166.23;;;60.72;;
20589;SDS011;10453;50.810;12.540;2022-12-04T13:48:51;164.33;;;60.60;;
20589;SDS011;10453;50.810;12.540;2022-12-04T13:53:28;181.73;;;63.22;;
20589;SDS011;10453;50.810;12.540;2022-12-04T13:57:54;186.45;;;63.72;;
20589;SDS011;10453;50.810;12.540;2022-12-04T14:02:20;202.63;;;67.20;;
20589;SDS011;10453;50.810;12.540;2022-12-04T14:06:44;174.10;;;64.87;;
20589;SDS011;10453;50.810;12.540;2022-12-04T14:11:08;180.73;;;66.45;;
20589;SDS011;10453;50.810;12.540;2022-12-04T14:15:31;187.73;;;64.88;;
20589;SDS011;10453;50.810;12.540;2022-12-04T14:19:52;190.45;;;64.68;;
20589;SDS011;10453;50.810;12.540;2022-12-04T14:33:55;238.95;;;86.40;;
20589;SDS011;10453;50.810;12.540;2022-12-04T14:38:19;524.50;;;306.58;;
20589;SDS011;10453;50.810;12.540;2022-12-04T14:42:37;266.45;;;110.80;;
20589;SDS011;10453;50.810;12.540;2022-12-04T14:46:57;284.67;;;116.70;;
20589;SDS011;10453;50.810;12.540;2022-12-04T15:00:31;183.13;;;69.03;;
20589;SDS011;10453;50.810;12.540;2022-12-04T15:04:48;363.08;;;173.55;;
20589;SDS011;10453;50.810;12.540;2022-12-04T15:09:15;212.05;;;72.78;;
20589;SDS011;10453;50.810;12.540;2022-12-04T15:13:53;218.15;;;74.60;;
20589;SDS011;10453;50.810;12.540;2022-12-04T15:18:19;195.15;;;69.43;;
20589;SDS011;10453;50.810;12.540;2022-12-04T15:22:36;244.60;;;84.55;;
20589;SDS011;10453;50.810;12.540;2022-12-04T15:26:54;208.60;;;77.55;;
20589;SDS011;10453;50.810;12.540;2022-12-04T15:31:14;244.47;;;77.23;;
20589;SDS011;10453;50.810;12.540;2022-12-04T15:35:35;214.75;;;71.15;;
20589;SDS011;10453;50.810;12.540;2022-12-04T15:39:56;213.77;;;70.75;;
20589;SDS011;10453;50.810;12.540;2022-12-04T15:48:50;225.15;;;72.57;;
20589;SDS011;10453;50.810;12.540;2022-12-04T15:53:13;198.32;;;67.88;;
